createdAt,value
2017-06-25T00:00:49.637Z,41
2017-06-25T00:03:22.772Z,40.7
2017-06-25T00:04:24.909Z,40.7
2017-06-25T00:05:26.362Z,41
2017-06-25T00:06:28.183Z,40.9
2017-06-25T00:07:29.989Z,40.7
2017-06-25T00:08:31.456Z,40.7
2017-06-25T00:09:33.257Z,40.7
2017-06-25T00:10:34.706Z,40.6
2017-06-25T00:11:36.485Z,40.7
2017-06-25T00:12:38.292Z,40.7
2017-06-25T00:13:40.427Z,40.9
2017-06-25T00:14:42.233Z,40.9
2017-06-25T00:15:44.372Z,40.7
2017-06-25T00:16:46.511Z,40.6
2017-06-25T00:17:48.649Z,40.8
2017-06-25T00:18:50.440Z,40.9
2017-06-25T00:19:52.221Z,40.9
2017-06-25T00:20:53.697Z,40.7
2017-06-25T00:21:55.834Z,41
2017-06-25T00:22:57.635Z,40.5
2017-06-25T00:23:59.772Z,40.6
2017-06-25T00:25:01.242Z,40.8
2017-06-25T00:26:03.380Z,40.9
2017-06-25T00:27:05.184Z,40.9
2017-06-25T00:28:07.321Z,40.5
2017-06-25T00:29:08.102Z,40.6
2017-06-25T00:30:10.240Z,40.5
2017-06-25T00:31:11.689Z,40.6
2017-06-25T00:32:13.824Z,40.9
2017-06-25T00:33:15.271Z,40.4
2017-06-25T00:34:17.424Z,40.9
2017-06-25T00:35:18.879Z,40.8
2017-06-25T00:36:20.737Z,40.5
2017-06-25T00:37:22.189Z,40.4
2017-06-25T00:38:23.636Z,40.9
2017-06-25T00:39:25.773Z,40.9
2017-06-25T00:40:27.934Z,40.8
2017-06-25T00:41:29.707Z,40.5
2017-06-25T00:42:31.853Z,40.9
2017-06-25T00:43:33.321Z,40.8
2017-06-25T00:44:35.481Z,40.8
2017-06-25T00:45:37.261Z,40.4
2017-06-25T00:46:39.064Z,41
2017-06-25T00:47:40.852Z,40.9
2017-06-25T00:48:42.990Z,40.9
2017-06-25T00:49:44.793Z,40.8
2017-06-25T00:50:46.932Z,41
2017-06-25T00:51:49.070Z,40.5
2017-06-25T00:52:51.218Z,41
2017-06-25T00:53:53.021Z,40.9
2017-06-25T00:54:54.824Z,40.5
2017-06-25T00:55:56.961Z,41.1
2017-06-25T00:56:58.764Z,40.7
2017-06-25T00:58:00.548Z,40.5
2017-06-25T00:59:02.330Z,41.1
2017-06-25T01:00:04.470Z,40.5
2017-06-25T01:01:06.252Z,40.4
2017-06-25T01:02:08.400Z,40.5
2017-06-25T01:03:10.174Z,40.4
2017-06-25T01:04:11.963Z,41.1
2017-06-25T01:05:13.767Z,40.6
2017-06-25T01:06:15.906Z,40.6
2017-06-25T01:07:18.044Z,41.1
2017-06-25T01:08:20.182Z,40.5
2017-06-25T01:09:22.319Z,41.1
2017-06-25T01:10:24.477Z,41.1
2017-06-25T01:11:26.281Z,41.1
2017-06-25T01:12:27.735Z,41.1
2017-06-25T01:13:29.873Z,41.2
2017-06-25T01:14:32.010Z,41.1
2017-06-25T01:15:33.813Z,41.1
2017-06-25T01:16:35.617Z,41.1
2017-06-25T01:17:37.400Z,40.6
2017-06-25T01:18:39.537Z,41.1
2017-06-25T01:19:41.676Z,41.1
2017-06-25T01:20:43.813Z,40.9
2017-06-25T01:21:45.620Z,40.9
2017-06-25T01:22:47.423Z,40.9
2017-06-25T01:23:49.228Z,41.1
2017-06-25T01:24:51.366Z,40.9
2017-06-25T01:25:52.850Z,41.2
2017-06-25T01:26:54.652Z,41.2
2017-06-25T01:27:56.455Z,40.9
2017-06-25T01:28:57.928Z,41.1
2017-06-25T01:30:00.084Z,40.9
2017-06-25T01:31:01.898Z,41.2
2017-06-25T01:32:03.704Z,41.2
2017-06-25T01:33:05.515Z,40.9
2017-06-25T01:34:07.652Z,40.9
2017-06-25T01:35:09.456Z,40.9
2017-06-25T01:36:11.594Z,41
2017-06-25T01:37:13.399Z,41.1
2017-06-25T01:38:15.205Z,41.1
2017-06-25T01:39:17.349Z,41
2017-06-25T01:40:19.487Z,41
2017-06-25T01:41:21.293Z,41.1
2017-06-25T01:42:23.431Z,41.1
2017-06-25T01:43:25.568Z,40.7
2017-06-25T01:44:26.701Z,40.7
2017-06-25T01:45:28.513Z,40.9
2017-06-25T01:46:30.321Z,41
2017-06-25T01:47:32.101Z,40.8
2017-06-25T01:48:33.884Z,40.9
2017-06-25T01:49:35.334Z,41
2017-06-25T01:50:37.472Z,40.7
2017-06-25T01:51:38.942Z,40.9
2017-06-25T01:52:40.760Z,40.9
2017-06-25T01:53:42.252Z,40.9
2017-06-25T01:54:44.033Z,40.8
2017-06-25T01:55:45.815Z,40.7
2017-06-25T01:56:47.285Z,41
2017-06-25T01:57:49.089Z,40.8
2017-06-25T01:58:50.894Z,40.7
2017-06-25T01:59:53.031Z,40.9
2017-06-25T02:00:54.490Z,40.6
2017-06-25T02:01:56.625Z,40.7
2017-06-25T02:02:58.763Z,40.7
2017-06-25T02:04:00.266Z,40.9
2017-06-25T02:05:02.402Z,40.9
2017-06-25T02:06:04.562Z,40.9
2017-06-25T02:07:06.700Z,40.9
2017-06-25T02:08:08.836Z,40.9
2017-06-25T02:09:10.643Z,41.1
2017-06-25T02:10:12.480Z,41.1
2017-06-25T02:11:14.269Z,40.8
2017-06-25T02:12:16.077Z,40.9
2017-06-25T02:13:17.880Z,40.7
2017-06-25T02:14:19.681Z,40.7
2017-06-25T02:15:21.820Z,40.9
2017-06-25T02:16:23.622Z,41.2
2017-06-25T02:17:25.406Z,40.9
2017-06-25T02:18:27.191Z,40.7
2017-06-25T02:19:28.639Z,40.9
2017-06-25T02:20:30.776Z,40.9
2017-06-25T02:21:32.583Z,40.9
2017-06-25T02:22:34.368Z,40.6
2017-06-25T02:23:36.151Z,40.9
2017-06-25T02:24:37.597Z,40.9
2017-06-25T02:25:39.489Z,41
2017-06-25T02:26:41.405Z,40.6
2017-06-25T02:27:43.541Z,40.9
2017-06-25T02:28:44.989Z,41.2
2017-06-25T02:29:46.774Z,40.7
2017-06-25T02:30:48.574Z,40.6
2017-06-25T02:31:50.377Z,40.7
2017-06-25T02:32:52.527Z,40.9
2017-06-25T02:33:54.663Z,40.9
2017-06-25T02:34:56.114Z,40.6
2017-06-25T02:35:57.962Z,41.2
2017-06-25T02:36:59.745Z,41.1
2017-06-25T02:38:01.884Z,41.2
2017-06-25T02:39:04.019Z,41.2
2017-06-25T02:40:05.826Z,41.2
2017-06-25T02:41:07.960Z,41.1
2017-06-25T02:42:09.766Z,41.1
2017-06-25T02:43:11.904Z,40.6
2017-06-25T02:44:13.707Z,41.1
2017-06-25T02:45:15.517Z,40.6
2017-06-25T02:46:16.964Z,40.5
2017-06-25T02:47:19.101Z,41.1
2017-06-25T02:48:21.238Z,40.7
2017-06-25T02:49:22.687Z,40.6
2017-06-25T02:50:24.136Z,40.6
2017-06-25T02:51:25.922Z,41.1
2017-06-25T02:52:27.704Z,40.5
2017-06-25T02:53:29.843Z,41.1
2017-06-25T02:54:31.292Z,41.1
2017-06-25T02:55:33.099Z,40.5
2017-06-25T02:56:34.911Z,40.5
2017-06-25T02:57:36.361Z,40.5
2017-06-25T02:58:38.168Z,41.1
2017-06-25T02:59:39.971Z,40.6
2017-06-25T03:00:41.421Z,40.7
2017-06-25T03:01:42.873Z,41.1
2017-06-25T03:02:45.013Z,40.6
2017-06-25T03:03:46.825Z,40.5
2017-06-25T03:04:47.961Z,41.1
2017-06-25T03:05:49.765Z,41.2
2017-06-25T03:06:51.570Z,40.9
2017-06-25T03:07:53.358Z,41.1
2017-06-25T03:08:54.806Z,41.2
2017-06-25T03:09:56.613Z,41.2
2017-06-25T03:10:58.396Z,40.9
2017-06-25T03:12:00.178Z,41.1
2017-06-25T03:13:01.979Z,40.6
2017-06-25T03:14:04.123Z,41.1
2017-06-25T03:15:05.925Z,40.9
2017-06-25T03:16:08.062Z,41.1
2017-06-25T03:17:10.208Z,41.1
2017-06-25T03:18:12.008Z,41
2017-06-25T03:19:14.145Z,41.2
2017-06-25T03:20:15.947Z,40.6
2017-06-25T03:21:17.755Z,41.1
2017-06-25T03:22:19.543Z,41.2
2017-06-25T03:23:21.678Z,41.1
2017-06-25T03:24:23.129Z,40.9
2017-06-25T03:25:25.267Z,41
2017-06-25T03:26:26.389Z,40.9
2017-06-25T03:27:28.192Z,40.8
2017-06-25T03:28:29.999Z,41
2017-06-25T03:29:32.136Z,41.2
2017-06-25T03:30:33.942Z,41.2
2017-06-25T03:31:36.077Z,41.1
2017-06-25T03:32:37.859Z,41.1
2017-06-25T03:33:39.664Z,40.8
2017-06-25T03:34:41.471Z,41.1
2017-06-25T03:35:42.941Z,41.1
2017-06-25T03:36:44.388Z,40.7
2017-06-25T03:37:46.197Z,40.8
2017-06-25T03:38:48.000Z,40.9
2017-06-25T03:39:49.476Z,40.8
2017-06-25T03:40:50.946Z,41.1
2017-06-25T03:41:52.731Z,41.3
2017-06-25T03:42:54.204Z,40.7
2017-06-25T03:43:56.007Z,41.1
2017-06-25T03:44:57.477Z,41.1
2017-06-25T03:45:59.282Z,40.7
2017-06-25T03:47:01.087Z,41.1
2017-06-25T03:48:03.224Z,41.1
2017-06-25T03:49:05.363Z,40.5
2017-06-25T03:50:06.813Z,41.1
2017-06-25T03:51:08.954Z,41.1
2017-06-25T03:52:10.401Z,41.2
2017-06-25T03:53:12.206Z,41.2
2017-06-25T03:54:14.394Z,41.1
2017-06-25T03:55:16.180Z,41
2017-06-25T03:56:18.338Z,41.1
2017-06-25T03:57:20.474Z,40.9
2017-06-25T03:58:22.613Z,41.1
2017-06-25T03:59:24.752Z,41.1
2017-06-25T04:00:26.222Z,40.8
2017-06-25T04:01:28.358Z,41.2
2017-06-25T04:02:30.162Z,40.8
2017-06-25T04:03:31.964Z,40.8
2017-06-25T04:04:33.436Z,40.7
2017-06-25T04:05:34.892Z,40.9
2017-06-25T04:06:37.034Z,41.1
2017-06-25T04:07:38.491Z,40.8
2017-06-25T04:08:40.629Z,41.3
2017-06-25T04:09:42.079Z,40.9
2017-06-25T04:10:43.544Z,40.8
2017-06-25T04:11:45.347Z,40.8
2017-06-25T04:12:47.128Z,40.9
2017-06-25T04:13:48.938Z,41.1
2017-06-25T04:14:51.076Z,41
2017-06-25T04:15:52.529Z,41.1
2017-06-25T04:16:53.982Z,41.2
2017-06-25T04:17:56.119Z,40.8
2017-06-25T04:18:58.255Z,41.2
2017-06-25T04:20:00.036Z,41.2
2017-06-25T04:21:01.486Z,40.8
2017-06-25T04:22:03.290Z,40.8
2017-06-25T04:23:04.757Z,41.1
2017-06-25T04:24:06.563Z,40.8
2017-06-25T04:25:08.037Z,40.8
2017-06-25T04:26:09.844Z,40.8
2017-06-25T04:27:11.645Z,40.8
2017-06-25T04:28:13.782Z,41.1
2017-06-25T04:29:15.231Z,41.1
2017-06-25T04:30:16.706Z,41.2
2017-06-25T04:31:18.847Z,40.9
2017-06-25T04:32:20.640Z,41.1
2017-06-25T04:33:22.093Z,41.1
2017-06-25T04:34:23.900Z,41.1
2017-06-25T04:35:26.034Z,41.1
2017-06-25T04:36:27.842Z,40.6
2017-06-25T04:37:29.631Z,41.1
2017-06-25T04:38:31.767Z,41.2
2017-06-25T04:39:33.219Z,40.5
2017-06-25T04:40:35.033Z,41.1
2017-06-25T04:41:36.506Z,41.1
2017-06-25T04:42:38.312Z,41.1
2017-06-25T04:43:40.453Z,40.6
2017-06-25T04:44:42.595Z,41.1
2017-06-25T04:45:44.042Z,40.5
2017-06-25T04:46:45.852Z,40.8
2017-06-25T04:47:47.633Z,41
2017-06-25T04:48:49.773Z,40.4
2017-06-25T04:49:51.922Z,40.4
2017-06-25T04:50:53.044Z,40
2017-06-25T04:51:54.851Z,40.1
2017-06-25T04:52:56.658Z,40
2017-06-25T04:53:58.133Z,40.1
2017-06-25T04:54:59.917Z,39.7
2017-06-25T04:56:01.738Z,39.8
2017-06-25T04:57:03.189Z,39.2
2017-06-25T04:58:05.366Z,39.6
2017-06-25T04:59:06.820Z,39.5
2017-06-25T05:00:08.958Z,39.5
2017-06-25T05:01:10.412Z,39.4
2017-06-25T05:02:12.549Z,39.8
2017-06-25T05:03:14.700Z,39.6
2017-06-25T05:04:16.839Z,40
2017-06-25T05:05:18.979Z,39.9
2017-06-25T05:06:20.784Z,39.6
2017-06-25T05:07:22.602Z,40
2017-06-25T05:08:24.408Z,40
2017-06-25T05:09:26.548Z,40.3
2017-06-25T05:10:28.688Z,40.5
2017-06-25T05:11:30.841Z,40.3
2017-06-25T05:12:32.980Z,40.3
2017-06-25T05:13:35.116Z,40.2
2017-06-25T05:14:37.254Z,39.9
2017-06-25T05:15:38.701Z,40.6
2017-06-25T05:16:40.175Z,40.5
2017-06-25T05:17:42.398Z,40.5
2017-06-25T05:18:44.535Z,40.3
2017-06-25T05:19:46.007Z,40.6
2017-06-25T05:20:47.458Z,40.4
2017-06-25T05:21:49.595Z,40.5
2017-06-25T05:22:51.042Z,40.6
2017-06-25T05:23:52.850Z,40.4
2017-06-25T05:24:54.987Z,40.3
2017-06-25T05:25:56.791Z,40.3
2017-06-25T05:26:58.929Z,40.5
2017-06-25T05:28:00.735Z,40.2
2017-06-25T05:29:02.873Z,40.4
2017-06-25T05:30:05.012Z,40.4
2017-06-25T05:31:07.149Z,40.5
2017-06-25T05:32:08.937Z,40.6
2017-06-25T05:33:11.077Z,40.4
2017-06-25T05:34:12.864Z,40.5
2017-06-25T05:35:15.002Z,40.5
2017-06-25T05:36:16.810Z,40.4
2017-06-25T05:37:18.946Z,40.4
2017-06-25T05:38:20.754Z,40.3
2017-06-25T05:39:22.583Z,40.4
2017-06-25T05:40:24.035Z,40.5
2017-06-25T05:41:25.815Z,40.5
2017-06-25T05:42:27.955Z,40.5
2017-06-25T05:43:29.761Z,40.3
2017-06-25T05:44:31.570Z,40.5
2017-06-25T05:45:33.023Z,40.3
2017-06-25T05:46:35.165Z,40.3
2017-06-25T05:47:36.973Z,40.4
2017-06-25T05:48:38.778Z,40.4
2017-06-25T05:49:40.919Z,40.4
2017-06-25T05:50:42.726Z,40.5
2017-06-25T05:51:44.536Z,40.6
2017-06-25T05:52:46.793Z,40.5
2017-06-25T05:53:48.587Z,40.3
2017-06-25T05:54:50.377Z,40.4
2017-06-25T05:55:52.518Z,40.3
2017-06-25T05:56:54.324Z,40.5
2017-06-25T05:57:56.131Z,40.4
2017-06-25T05:58:58.272Z,40.4
2017-06-25T06:00:00.074Z,40.4
2017-06-25T06:01:01.525Z,40.3
2017-06-25T06:02:03.662Z,40
2017-06-25T06:03:05.801Z,40.4
2017-06-25T06:04:07.585Z,40.4
2017-06-25T06:05:09.390Z,40.6
2017-06-25T06:06:11.526Z,40.4
2017-06-25T06:07:13.332Z,40.4
2017-06-25T06:08:14.851Z,40.3
2017-06-25T06:09:16.300Z,40.4
2017-06-25T06:10:18.108Z,40.4
2017-06-25T06:11:19.228Z,40.2
2017-06-25T06:12:21.010Z,40.3
2017-06-25T06:13:22.796Z,40.3
2017-06-25T06:14:24.932Z,40.3
2017-06-25T06:15:27.073Z,40.4
2017-06-25T06:16:29.210Z,40.4
2017-06-25T06:17:31.348Z,40.4
2017-06-25T06:18:33.157Z,40.4
2017-06-25T06:19:34.631Z,40.3
2017-06-25T06:20:36.773Z,40.4
2017-06-25T06:21:38.566Z,40.6
2017-06-25T06:22:39.356Z,40.5
2017-06-25T06:23:40.827Z,40.7
2017-06-25T06:24:42.638Z,40.5
2017-06-25T06:25:44.777Z,40.5
2017-06-25T06:26:46.228Z,40.5
2017-06-25T06:27:47.702Z,40.5
2017-06-25T06:28:49.843Z,40.5
2017-06-25T06:29:50.967Z,40.3
2017-06-25T06:30:52.443Z,40.3
2017-06-25T06:31:54.256Z,40.5
2017-06-25T06:32:56.064Z,40.5
2017-06-25T06:33:57.870Z,40.5
2017-06-25T06:34:59.346Z,40.4
2017-06-25T06:36:01.486Z,40.4
2017-06-25T06:37:02.607Z,40.5
2017-06-25T06:38:04.066Z,40.5
2017-06-25T06:39:05.568Z,40.4
2017-06-25T06:40:07.024Z,40.5
2017-06-25T06:41:08.474Z,40.3
2017-06-25T06:42:10.264Z,40.7
2017-06-25T06:43:11.738Z,40.4
2017-06-25T06:44:13.877Z,40.4
2017-06-25T06:45:16.019Z,40.5
2017-06-25T06:46:17.151Z,40.3
2017-06-25T06:47:18.958Z,40.3
2017-06-25T06:48:20.431Z,40.6
2017-06-25T06:49:22.571Z,40.6
2017-06-25T06:50:24.381Z,40.4
2017-06-25T06:51:25.837Z,40.6
2017-06-25T06:52:27.642Z,40.4
2017-06-25T06:53:29.784Z,40.5
2017-06-25T06:54:31.594Z,40.4
2017-06-25T06:55:33.733Z,40.4
2017-06-25T06:56:35.538Z,40.4
2017-06-25T06:57:36.992Z,40.7
2017-06-25T06:58:39.140Z,40.6
2017-06-25T06:59:40.943Z,40.4
2017-06-25T07:00:42.084Z,40.6
2017-06-25T07:01:44.232Z,40.3
2017-06-25T07:02:46.040Z,40.5
2017-06-25T07:03:47.831Z,40.1
2017-06-25T07:04:49.963Z,40.3
2017-06-25T07:05:51.768Z,40.5
2017-06-25T07:06:53.910Z,40.1
2017-06-25T07:07:55.053Z,40.2
2017-06-25T07:08:57.195Z,40.4
2017-06-25T07:09:59.438Z,40
2017-06-25T07:11:01.218Z,40.4
2017-06-25T07:12:03.024Z,40.2
2017-06-25T07:13:04.477Z,40.7
2017-06-25T07:14:06.617Z,40.3
2017-06-25T07:15:08.427Z,40.3
2017-06-25T07:16:09.877Z,40.3
2017-06-25T07:17:12.016Z,40.2
2017-06-25T07:18:13.491Z,40.4
2017-06-25T07:19:15.299Z,40.6
2017-06-25T07:20:17.084Z,40.4
2017-06-25T07:21:19.223Z,40.5
2017-06-25T07:22:21.035Z,40.7
2017-06-25T07:23:23.169Z,40.5
2017-06-25T07:24:24.625Z,40.6
2017-06-25T07:25:26.767Z,40.3
2017-06-25T07:26:28.902Z,40.3
2017-06-25T07:27:30.713Z,40
2017-06-25T07:28:32.850Z,40.5
2017-06-25T07:29:34.325Z,40.5
2017-06-25T07:30:35.798Z,40.4
2017-06-25T07:31:37.607Z,40.1
2017-06-25T07:32:39.748Z,40.7
2017-06-25T07:33:41.556Z,40.5
2017-06-25T07:34:43.699Z,40.5
2017-06-25T07:35:45.505Z,40.4
2017-06-25T07:36:47.647Z,40.7
2017-06-25T07:37:49.120Z,40.2
2017-06-25T07:38:51.263Z,40.1
2017-06-25T07:39:53.091Z,40.4
2017-06-25T07:40:54.585Z,40.1
2017-06-25T07:41:56.394Z,40.6
2017-06-25T07:42:58.534Z,40.5
2017-06-25T07:44:00.673Z,40.5
2017-06-25T07:45:02.481Z,40.4
2017-06-25T07:46:03.721Z,40.4
2017-06-25T07:47:05.510Z,40.5
2017-06-25T07:48:07.313Z,40.5
2017-06-25T07:49:08.433Z,40.4
2017-06-25T07:50:10.237Z,40
2017-06-25T07:51:12.381Z,40.3
2017-06-25T07:52:14.191Z,40.4
2017-06-25T07:53:15.995Z,40.4
2017-06-25T07:54:17.776Z,40.4
2017-06-25T07:55:19.566Z,40.3
2017-06-25T07:56:21.469Z,40.6
2017-06-25T07:57:23.276Z,40.3
2017-06-25T07:58:25.414Z,40.5
2017-06-25T07:59:27.554Z,40.1
2017-06-25T08:00:29.698Z,39.9
2017-06-25T08:01:31.502Z,40.5
2017-06-25T08:02:33.310Z,40.3
2017-06-25T08:03:35.449Z,40.4
2017-06-25T08:04:36.904Z,40.5
2017-06-25T08:05:39.044Z,39.8
2017-06-25T08:06:40.519Z,40.2
2017-06-25T08:07:41.994Z,40
2017-06-25T08:08:43.799Z,40.1
2017-06-25T08:09:45.619Z,39.8
2017-06-25T08:10:47.759Z,40.3
2017-06-25T08:11:49.643Z,39.8
2017-06-25T08:12:51.431Z,40
2017-06-25T08:13:52.893Z,40
2017-06-25T08:14:54.368Z,40.1
2017-06-25T08:15:55.820Z,39.9
2017-06-25T08:16:56.945Z,39.9
2017-06-25T08:17:58.747Z,39.8
2017-06-25T08:19:00.226Z,40
2017-06-25T08:20:02.036Z,39.9
2017-06-25T08:21:03.483Z,40.1
2017-06-25T08:22:05.727Z,40.1
2017-06-25T08:23:07.533Z,40
2017-06-25T08:24:09.342Z,40.1
2017-06-25T08:25:11.147Z,39.9
2017-06-25T08:26:12.955Z,39.6
2017-06-25T08:27:14.762Z,40
2017-06-25T08:28:16.900Z,40.2
2017-06-25T08:29:18.704Z,39.9
2017-06-25T08:30:20.508Z,40
2017-06-25T08:31:22.316Z,40.4
2017-06-25T08:32:24.457Z,40.1
2017-06-25T08:33:25.934Z,39.7
2017-06-25T08:34:27.741Z,39.8
2017-06-25T08:35:29.547Z,39.6
2017-06-25T08:36:31.687Z,39.7
2017-06-25T08:37:33.496Z,39.7
2017-06-25T08:38:34.973Z,40.2
2017-06-25T08:39:36.451Z,40
2017-06-25T08:40:38.590Z,40.2
2017-06-25T08:41:40.735Z,40.2
2017-06-25T08:42:41.851Z,39.7
2017-06-25T08:43:43.658Z,40.1
2017-06-25T08:44:45.470Z,40.2
2017-06-25T08:45:47.274Z,40.4
2017-06-25T08:46:48.726Z,39.7
2017-06-25T08:47:50.527Z,39.9
2017-06-25T08:48:52.338Z,39.6
2017-06-25T08:49:54.139Z,39.7
2017-06-25T08:50:55.948Z,40
2017-06-25T08:51:57.754Z,39.9
2017-06-25T08:52:59.893Z,40
2017-06-25T08:54:02.033Z,40
2017-06-25T08:55:04.173Z,40
2017-06-25T08:56:06.315Z,39.6
2017-06-25T08:57:08.455Z,39.4
2017-06-25T08:58:10.264Z,39.5
2017-06-25T08:59:12.401Z,39.6
2017-06-25T09:00:14.537Z,40
2017-06-25T09:01:15.990Z,40
2017-06-25T09:02:18.128Z,40
2017-06-25T09:03:19.913Z,39.4
2017-06-25T09:04:21.732Z,39.4
2017-06-25T09:05:23.537Z,39.6
2017-06-25T09:06:25.679Z,40
2017-06-25T09:07:26.799Z,39.7
2017-06-25T09:08:28.247Z,39.6
2017-06-25T09:09:30.032Z,39.2
2017-06-25T09:10:32.172Z,39.4
2017-06-25T09:11:33.625Z,39.2
2017-06-25T09:12:35.765Z,39.6
2017-06-25T09:13:37.569Z,39.4
2017-06-25T09:14:39.376Z,39.9
2017-06-25T09:15:41.165Z,39.7
2017-06-25T09:16:42.634Z,39.4
2017-06-25T09:17:44.442Z,39.9
2017-06-25T09:18:46.584Z,39.4
2017-06-25T09:19:48.725Z,39.8
2017-06-25T09:20:50.866Z,39.5
2017-06-25T09:21:51.992Z,39.8
2017-06-25T09:22:53.442Z,39.8
2017-06-25T09:23:54.898Z,39.5
2017-06-25T09:24:56.705Z,39.3
2017-06-25T09:25:58.513Z,39.3
2017-06-25T09:27:00.319Z,39.9
2017-06-25T09:28:02.461Z,39.9
2017-06-25T09:29:04.610Z,39.9
2017-06-25T09:30:06.412Z,39.5
2017-06-25T09:31:08.225Z,39.4
2017-06-25T09:32:10.030Z,39.6
2017-06-25T09:33:11.841Z,39.7
2017-06-25T09:34:13.981Z,39.5
2017-06-25T09:35:16.122Z,39.6
2017-06-25T09:36:17.911Z,40
2017-06-25T09:37:19.721Z,39.6
2017-06-25T09:38:21.866Z,40
2017-06-25T09:39:22.983Z,39.8
2017-06-25T09:40:24.787Z,39.8
2017-06-25T09:41:26.929Z,39.6
2017-06-25T09:42:29.066Z,40.2
2017-06-25T09:43:30.852Z,39.8
2017-06-25T09:44:32.995Z,39.6
2017-06-25T09:45:35.136Z,39.8
2017-06-25T09:46:36.944Z,39.9
2017-06-25T09:47:38.416Z,39.9
2017-06-25T09:48:39.867Z,40
2017-06-25T09:49:41.671Z,39.9
2017-06-25T09:50:43.478Z,40
2017-06-25T09:51:45.622Z,39.7
2017-06-25T09:52:47.079Z,39.6
2017-06-25T09:53:49.217Z,39.6
2017-06-25T09:54:51.028Z,40
2017-06-25T09:55:52.838Z,39.8
2017-06-25T09:56:54.644Z,39.6
2017-06-25T09:57:56.448Z,39.9
2017-06-25T09:58:57.902Z,39.9
2017-06-25T09:59:59.454Z,40
2017-06-25T10:01:01.260Z,40
2017-06-25T10:02:03.401Z,39.6
2017-06-25T10:03:05.540Z,40.1
2017-06-25T10:04:07.678Z,39.6
2017-06-25T10:05:09.156Z,40
2017-06-25T10:06:10.932Z,39.7
2017-06-25T10:07:12.742Z,40.1
2017-06-25T10:08:14.545Z,39.8
2017-06-25T10:09:15.998Z,39.6
2017-06-25T10:10:17.855Z,39.9
2017-06-25T10:11:19.996Z,40.2
2017-06-25T10:12:22.137Z,39.8
2017-06-25T10:13:23.250Z,39.5
2017-06-25T10:14:25.059Z,39.6
2017-06-25T10:15:26.512Z,40.1
2017-06-25T10:16:27.968Z,39.6
2017-06-25T10:17:29.776Z,39.6
2017-06-25T10:18:31.582Z,39.6
2017-06-25T10:19:33.392Z,40.2
2017-06-25T10:20:35.196Z,39.7
2017-06-25T10:21:37.337Z,39.9
2017-06-25T10:22:38.812Z,39.8
2017-06-25T10:23:40.289Z,39.8
2017-06-25T10:24:42.089Z,39.6
2017-06-25T10:25:43.231Z,39.3
2017-06-25T10:26:44.702Z,40
2017-06-25T10:27:46.506Z,39.4
2017-06-25T10:28:48.646Z,39.6
2017-06-25T10:29:50.787Z,39.5
2017-06-25T10:30:52.643Z,39.4
2017-06-25T10:31:54.096Z,40
2017-06-25T10:32:55.564Z,39.7
2017-06-25T10:33:57.012Z,39.8
2017-06-25T10:34:58.799Z,39.7
2017-06-25T10:36:01.042Z,39.3
2017-06-25T10:37:02.516Z,39.6
2017-06-25T10:38:04.653Z,39.2
2017-06-25T10:39:06.461Z,39.6
2017-06-25T10:40:08.602Z,39.8
2017-06-25T10:41:10.740Z,39.8
2017-06-25T10:42:12.886Z,39.7
2017-06-25T10:43:15.040Z,39.4
2017-06-25T10:44:17.182Z,39.6
2017-06-25T10:45:19.323Z,39.4
2017-06-25T10:46:21.129Z,39.9
2017-06-25T10:47:22.935Z,39.6
2017-06-25T10:48:24.746Z,39.1
2017-06-25T10:49:26.224Z,39.7
2017-06-25T10:50:28.030Z,39.9
2017-06-25T10:51:30.173Z,39.6
2017-06-25T10:52:31.978Z,39.4
2017-06-25T10:53:33.789Z,39.6
2017-06-25T10:54:35.262Z,39.3
2017-06-25T10:55:37.406Z,39.2
2017-06-25T10:56:38.879Z,39.3
2017-06-25T10:57:41.045Z,39.3
2017-06-25T10:58:43.170Z,39.9
2017-06-25T10:59:44.961Z,39.5
2017-06-25T11:00:46.767Z,39.7
2017-06-25T11:01:48.244Z,39.6
2017-06-25T11:02:50.046Z,39.9
2017-06-25T11:03:51.501Z,39.7
2017-06-25T11:04:53.318Z,39.8
2017-06-25T11:05:54.103Z,40
2017-06-25T11:06:55.221Z,40.1
2017-06-25T11:07:56.674Z,40.2
2017-06-25T11:08:58.814Z,40.2
2017-06-25T11:10:00.625Z,40
2017-06-25T11:11:02.431Z,39.4
2017-06-25T11:12:04.236Z,39.3
2017-06-25T11:13:06.376Z,40.1
2017-06-25T11:14:07.827Z,39.7
2017-06-25T11:15:09.610Z,39.6
2017-06-25T11:16:11.065Z,39.6
2017-06-25T11:17:12.547Z,39.1
2017-06-25T11:18:14.353Z,39.1
2017-06-25T11:19:15.824Z,39.8
2017-06-25T11:20:17.633Z,39.8
2017-06-25T11:21:19.110Z,39.1
2017-06-25T11:22:20.569Z,39.9
2017-06-25T11:23:22.705Z,39.6
2017-06-25T11:24:24.847Z,39.8
2017-06-25T11:25:26.298Z,39.4
2017-06-25T11:26:28.443Z,39.3
2017-06-25T11:27:30.247Z,39.5
2017-06-25T11:28:32.032Z,39.8
2017-06-25T11:29:33.836Z,39.3
2017-06-25T11:30:35.293Z,39.5
2017-06-25T11:31:36.768Z,39.7
2017-06-25T11:32:38.958Z,39.6
2017-06-25T11:33:40.742Z,39.8
2017-06-25T11:34:42.550Z,39.7
2017-06-25T11:35:44.020Z,39.5
2017-06-25T11:36:46.158Z,39.7
2017-06-25T11:37:47.967Z,39.5
2017-06-25T11:38:50.110Z,39.6
2017-06-25T11:39:52.251Z,39.5
2017-06-25T11:40:54.390Z,39.1
2017-06-25T11:41:56.178Z,39.9
2017-06-25T11:42:58.320Z,39.4
2017-06-25T11:44:00.129Z,39.4
2017-06-25T11:45:01.581Z,39.2
2017-06-25T11:46:03.367Z,39.5
2017-06-25T11:47:05.173Z,39.6
2017-06-25T11:48:07.084Z,39.5
2017-06-25T11:49:08.558Z,39.6
2017-06-25T11:50:10.359Z,39.1
2017-06-25T11:51:12.503Z,39.1
2017-06-25T11:52:14.310Z,39.7
2017-06-25T11:53:16.457Z,39.9
2017-06-25T11:54:18.259Z,39.8
2017-06-25T11:55:20.064Z,39.4
2017-06-25T11:56:21.884Z,39.3
2017-06-25T11:57:23.671Z,39.3
2017-06-25T11:58:24.789Z,39.2
2017-06-25T11:59:26.602Z,39.5
2017-06-25T12:00:28.072Z,39.3
2017-06-25T12:01:30.212Z,39.6
2017-06-25T12:02:31.663Z,39.7
2017-06-25T12:03:33.469Z,39.8
2017-06-25T12:04:35.276Z,39.4
2017-06-25T12:05:37.063Z,39.5
2017-06-25T12:06:39.203Z,39.5
2017-06-25T12:07:40.328Z,39.4
2017-06-25T12:08:42.129Z,39.4
2017-06-25T12:09:43.938Z,39.5
2017-06-25T12:10:45.742Z,39.5
2017-06-25T12:11:46.859Z,39.5
2017-06-25T12:12:47.639Z,39.3
2017-06-25T12:13:49.113Z,39.5
2017-06-25T12:14:50.564Z,39.4
2017-06-25T12:15:52.046Z,39.7
2017-06-25T12:16:53.852Z,39.8
2017-06-25T12:17:55.639Z,39.4
2017-06-25T12:18:57.447Z,39.5
2017-06-25T12:19:59.587Z,39.8
2017-06-25T12:21:01.041Z,39.8
2017-06-25T12:22:02.847Z,39.8
2017-06-25T12:23:04.993Z,39.2
2017-06-25T12:24:07.132Z,39.9
2017-06-25T12:25:08.944Z,39.8
2017-06-25T12:26:10.403Z,39.5
2017-06-25T12:27:12.207Z,39.7
2017-06-25T12:28:14.012Z,39.3
2017-06-25T12:29:15.132Z,39.3
2017-06-25T12:30:16.916Z,39.1
2017-06-25T12:31:18.722Z,39.7
2017-06-25T12:32:20.196Z,39.1
2017-06-25T12:33:21.654Z,39.5
2017-06-25T12:34:23.111Z,39.5
2017-06-25T12:35:25.251Z,39.7
2017-06-25T12:36:26.372Z,39.5
2017-06-25T12:37:28.184Z,39.7
2017-06-25T12:38:29.996Z,39.2
2017-06-25T12:39:31.457Z,39.7
2017-06-25T12:40:32.909Z,39.5
2017-06-25T12:41:35.051Z,39.5
2017-06-25T12:42:36.509Z,39.5
2017-06-25T12:43:38.293Z,39.2
2017-06-25T12:44:40.104Z,39.9
2017-06-25T12:45:41.908Z,39.5
2017-06-25T12:46:44.047Z,39.5
2017-06-25T12:47:45.192Z,39.5
2017-06-25T12:48:46.308Z,39.4
2017-06-25T12:49:48.448Z,39.4
2017-06-25T12:50:50.253Z,39.1
2017-06-25T12:51:52.062Z,39.6
2017-06-25T12:52:54.219Z,39.6
2017-06-25T12:53:56.001Z,39.5
2017-06-25T12:54:57.791Z,39.7
2017-06-25T12:55:59.599Z,39.6
2017-06-25T12:57:01.407Z,39.5
2017-06-25T12:58:02.531Z,39.6
2017-06-25T12:59:04.340Z,39.8
2017-06-25T13:00:05.816Z,39.9
2017-06-25T13:01:07.273Z,39.2
2017-06-25T13:02:08.771Z,39.1
2017-06-25T13:03:10.916Z,39.7
2017-06-25T13:04:13.060Z,39.7
2017-06-25T13:05:14.947Z,39.7
2017-06-25T13:06:16.755Z,39.1
2017-06-25T13:07:18.568Z,39.5
2017-06-25T13:08:20.352Z,39.7
2017-06-25T13:09:22.491Z,40.1
2017-06-25T13:10:24.303Z,40.1
2017-06-25T13:11:26.107Z,39.9
2017-06-25T13:12:27.912Z,39.3
2017-06-25T13:13:30.052Z,39.8
2017-06-25T13:14:31.501Z,40
2017-06-25T13:15:33.360Z,39.4
2017-06-25T13:16:34.476Z,40
2017-06-25T13:17:36.613Z,39.9
2017-06-25T13:18:38.087Z,39.9
2017-06-25T13:19:39.874Z,39.5
2017-06-25T13:20:41.681Z,39.4
2017-06-25T13:21:43.465Z,39.6
2017-06-25T13:22:44.582Z,40.2
2017-06-25T13:23:46.394Z,39.6
2017-06-25T13:24:47.844Z,40
2017-06-25T13:25:49.985Z,40.1
2017-06-25T13:26:52.122Z,39.8
2017-06-25T13:27:53.936Z,39.7
2017-06-25T13:28:55.720Z,40.1
2017-06-25T13:29:57.170Z,40
2017-06-25T13:30:59.364Z,40
2017-06-25T13:32:01.503Z,39.7
2017-06-25T13:33:03.643Z,40.2
2017-06-25T13:34:05.433Z,39.4
2017-06-25T13:35:07.573Z,39.7
2017-06-25T13:36:09.129Z,39.2
2017-06-25T13:37:11.268Z,39.9
2017-06-25T13:38:13.057Z,39.9
2017-06-25T13:39:14.867Z,39.4
2017-06-25T13:40:16.323Z,39.3
2017-06-25T13:41:17.438Z,39.5
2017-06-25T13:42:18.895Z,40.1
2017-06-25T13:43:21.035Z,39.9
2017-06-25T13:44:22.493Z,39.3
2017-06-25T13:45:24.298Z,39.6
2017-06-25T13:46:26.105Z,40.1
2017-06-25T13:47:27.914Z,40.1
2017-06-25T13:48:29.722Z,39.9